Andersons Corner, PA

4:55 PM EDT on March 26, 2017 (GMT -0400)
Rockdale Twp | | Change Station

Elev 1171 ft 41.79 °N, 80.01 °W | Updated 1 second ago

Overcast
Overcast
62.0 °F
Feels Like 62.0 °F
N
6.0
Wind Variable Wind from South
Gusts 8.0 mph

Today
High -- | Low -- °F
--% Chance of Precip.
Yesterday
High -- | Low -- °F
Precip. -- in
Pressure 29.96 in
Visibility 10.0 miles
Clouds Few 7500 ft
Mostly Cloudy 10000 ft
Dew Point 51 °F
Humidity 67%
Rainfall 0.00 in
Snow Depth Not available.
7:12 AM 7:39 PM
Waning Crescent, 2% visible
METAR KGKJ 261953Z AUTO 16007KT 120V190 10SM FEW075 BKN100 18/08 A2997 RMK AO2 SLP146 T01780078
Pressure 29.96 in
Visibility 10.0 miles
Clouds Few 7500 ft
Mostly Cloudy 10000 ft
Dew Point 51 °F
Humidity 67%
Rainfall 0.00 in
Snow Depth Not available.
7:12 AM 7:39 PM
Waning Crescent, 2% visible
METAR KGKJ 261953Z AUTO 16007KT 120V190 10SM FEW075 BKN100 18/08 A2997 RMK AO2 SLP146 T01780078

Get Severe Weather Alerts

Thanks for signing up!

Be on the lookout for a verification email in your inbox.

You'll start receiving the daily forecast at 8 AM.

×

10-Day Weather Forecast

Almanac

Astronomy

Mar. 26, 2017 Rise Set
Actual Time
Civil Twilight
Nautical Twilight
Astronomical Twilight
Moon
Length of Visible Light
Length of Day
Tomorrow will be .
, % of the Moon is Illuminated

Today's Extremes

State Highs State Lows

Community

WunderPhotos

Upload Photos

1,962,540 photos uploaded!

WunderBlog® & News

Nearby

Air Quality

  Air Quality AQ Index Pollutant
Not available.

Snow Depth

Station Depth Elevation

Earthquake Activity

City Distance Mag. Time & Date
Minimum magnitude displayed is 2.5.

Earthquake Activity

City Distance Mag. Time & Date
Minimum magnitude displayed is 2.5.

Coastal Water Temperatures

Place Temperature

Stations

Nearby Weather Stations

Station Location Temp. Windchill Dew Point Humidity Wind Precip. Elev Updated Type
                   

Watches & Warnings

There are currently no watches in effect.